sensor_id;sensor_type;location;lat;lon;timestamp;temperature;humidity
66271;DHT22;53063;39.614;8.814;2022-09-09T00:02:21;24.30;87.80
66271;DHT22;53063;39.614;8.814;2022-09-09T00:07:56;24.20;88.30
66271;DHT22;53063;39.614;8.814;2022-09-09T00:10:37;24.20;88.50
66271;DHT22;53063;39.614;8.814;2022-09-09T00:16:00;24.10;88.30
66271;DHT22;53063;39.614;8.814;2022-09-09T00:18:54;24.10;88.00
66271;DHT22;53063;39.614;8.814;2022-09-09T00:21:47;24.10;87.80
66271;DHT22;53063;39.614;8.814;2022-09-09T00:32:59;23.90;89.30
66271;DHT22;53063;39.614;8.814;2022-09-09T00:35:37;24.00;89.10
66271;DHT22;53063;39.614;8.814;2022-09-09T00:38:14;24.10;89.30
66271;DHT22;53063;39.614;8.814;2022-09-09T00:43:57;24.20;89.70
66271;DHT22;53063;39.614;8.814;2022-09-09T00:57:41;24.30;89.80
66271;DHT22;53063;39.614;8.814;2022-09-09T01:00:19;24.40;90.30
66271;DHT22;53063;39.614;8.814;2022-09-09T01:09:21;23.80;93.00
66271;DHT22;53063;39.614;8.814;2022-09-09T01:11:25;23.90;93.20
66271;DHT22;53063;39.614;8.814;2022-09-09T01:14:01;23.80;94.00
66271;DHT22;53063;39.614;8.814;2022-09-09T01:16:33;23.70;94.70
66271;DHT22;53063;39.614;8.814;2022-09-09T01:19:00;23.70;95.70
66271;DHT22;53063;39.614;8.814;2022-09-09T01:21:48;23.90;95.70
66271;DHT22;53063;39.614;8.814;2022-09-09T01:24:48;24.10;95.00
66271;DHT22;53063;39.614;8.814;2022-09-09T01:27:40;24.00;95.10
66271;DHT22;53063;39.614;8.814;2022-09-09T01:30:13;24.00;95.60
66271;DHT22;53063;39.614;8.814;2022-09-09T01:32:46;23.90;96.40
66271;DHT22;53063;39.614;8.814;2022-09-09T01:37:59;24.10;96.10
66271;DHT22;53063;39.614;8.814;2022-09-09T01:40:26;24.20;95.20
66271;DHT22;53063;39.614;8.814;2022-09-09T01:42:53;24.20;94.70
66271;DHT22;53063;39.614;8.814;2022-09-09T01:45:21;24.30;93.90
66271;DHT22;53063;39.614;8.814;2022-09-09T01:47:47;24.30;93.20
66271;DHT22;53063;39.614;8.814;2022-09-09T01:50:20;24.40;92.70
66271;DHT22;53063;39.614;8.814;2022-09-09T01:52:50;24.40;92.10
66271;DHT22;53063;39.614;8.814;2022-09-09T01:55:28;24.50;92.00
66271;DHT22;53063;39.614;8.814;2022-09-09T01:59:06;24.60;91.70
66271;DHT22;53063;39.614;8.814;2022-09-09T02:01:17;24.60;91.60
66271;DHT22;53063;39.614;8.814;2022-09-09T02:03:51;24.60;91.60
66271;DHT22;53063;39.614;8.814;2022-09-09T02:06:36;24.60;91.50
66271;DHT22;53063;39.614;8.814;2022-09-09T02:09:24;24.60;91.10
66271;DHT22;53063;39.614;8.814;2022-09-09T02:12:05;24.60;90.80
66271;DHT22;53063;39.614;8.814;2022-09-09T02:14:50;24.60;90.60
66271;DHT22;53063;39.614;8.814;2022-09-09T02:17:25;24.60;90.30
66271;DHT22;53063;39.614;8.814;2022-09-09T02:20:09;24.40;91.10
66271;DHT22;53063;39.614;8.814;2022-09-09T02:22:46;24.20;91.90
66271;DHT22;53063;39.614;8.814;2022-09-09T02:25:19;24.30;91.60
66271;DHT22;53063;39.614;8.814;2022-09-09T02:27:49;24.30;91.30
66271;DHT22;53063;39.614;8.814;2022-09-09T02:30:16;24.20;90.70
66271;DHT22;53063;39.614;8.814;2022-09-09T02:32:50;24.10;90.90
66271;DHT22;53063;39.614;8.814;2022-09-09T02:35:21;24.10;90.90
66271;DHT22;53063;39.614;8.814;2022-09-09T02:37:51;24.10;90.90
66271;DHT22;53063;39.614;8.814;2022-09-09T02:40:19;24.10;90.90
66271;DHT22;53063;39.614;8.814;2022-09-09T02:42:54;24.10;90.80
66271;DHT22;53063;39.614;8.814;2022-09-09T02:45:25;24.10;91.00
66271;DHT22;53063;39.614;8.814;2022-09-09T02:56:21;24.30;90.80
66271;DHT22;53063;39.614;8.814;2022-09-09T02:58:49;24.40;91.00
66271;DHT22;53063;39.614;8.814;2022-09-09T03:01:17;24.40;91.30
66271;DHT22;53063;39.614;8.814;2022-09-09T03:03:44;24.50;91.30
66271;DHT22;53063;39.614;8.814;2022-09-09T03:06:14;24.50;91.50
66271;DHT22;53063;39.614;8.814;2022-09-09T03:08:41;24.60;91.50
66271;DHT22;53063;39.614;8.814;2022-09-09T03:11:08;24.60;91.80
66271;DHT22;53063;39.614;8.814;2022-09-09T03:13:36;24.60;91.80
66271;DHT22;53063;39.614;8.814;2022-09-09T03:16:04;24.60;92.00
66271;DHT22;53063;39.614;8.814;2022-09-09T03:18:34;24.60;92.20
66271;DHT22;53063;39.614;8.814;2022-09-09T03:21:00;24.50;92.50
66271;DHT22;53063;39.614;8.814;2022-09-09T03:23:28;24.50;92.40
66271;DHT22;53063;39.614;8.814;2022-09-09T03:25:56;24.50;92.70
66271;DHT22;53063;39.614;8.814;2022-09-09T03:28:32;24.60;92.70
66271;DHT22;53063;39.614;8.814;2022-09-09T03:31:02;24.60;92.70
66271;DHT22;53063;39.614;8.814;2022-09-09T03:33:33;24.60;92.90
66271;DHT22;53063;39.614;8.814;2022-09-09T03:36:00;24.60;92.90
66271;DHT22;53063;39.614;8.814;2022-09-09T03:38:26;24.60;93.00
66271;DHT22;53063;39.614;8.814;2022-09-09T03:40:54;24.60;93.00
66271;DHT22;53063;39.614;8.814;2022-09-09T03:43:22;24.70;93.20
66271;DHT22;53063;39.614;8.814;2022-09-09T03:45:51;24.60;93.10
66271;DHT22;53063;39.614;8.814;2022-09-09T03:48:17;24.60;93.10
66271;DHT22;53063;39.614;8.814;2022-09-09T03:50:45;24.70;93.10
66271;DHT22;53063;39.614;8.814;2022-09-09T03:53:11;24.60;92.80
66271;DHT22;53063;39.614;8.814;2022-09-09T03:55:37;24.50;92.80
66271;DHT22;53063;39.614;8.814;2022-09-09T03:58:04;24.50;92.90
66271;DHT22;53063;39.614;8.814;2022-09-09T04:00:30;24.50;92.80
66271;DHT22;53063;39.614;8.814;2022-09-09T04:02:56;24.40;92.80
66271;DHT22;53063;39.614;8.814;2022-09-09T04:05:23;24.50;92.70
66271;DHT22;53063;39.614;8.814;2022-09-09T04:07:49;24.50;92.50
66271;DHT22;53063;39.614;8.814;2022-09-09T04:10:17;24.50;92.70
66271;DHT22;53063;39.614;8.814;2022-09-09T04:12:43;24.50;92.80
66271;DHT22;53063;39.614;8.814;2022-09-09T04:15:09;24.50;92.80
66271;DHT22;53063;39.614;8.814;2022-09-09T04:17:38;24.40;92.70
66271;DHT22;53063;39.614;8.814;2022-09-09T04:20:04;24.50;92.80
66271;DHT22;53063;39.614;8.814;2022-09-09T04:22:31;24.50;92.80
66271;DHT22;53063;39.614;8.814;2022-09-09T04:24:58;24.50;92.70
66271;DHT22;53063;39.614;8.814;2022-09-09T04:27:24;24.40;92.40
66271;DHT22;53063;39.614;8.814;2022-09-09T04:29:50;24.40;92.20
66271;DHT22;53063;39.614;8.814;2022-09-09T04:32:16;24.40;92.00
66271;DHT22;53063;39.614;8.814;2022-09-09T04:34:43;24.40;91.70
66271;DHT22;53063;39.614;8.814;2022-09-09T04:37:10;24.40;91.60
66271;DHT22;53063;39.614;8.814;2022-09-09T04:39:37;24.30;91.40
66271;DHT22;53063;39.614;8.814;2022-09-09T04:42:05;24.30;91.10
66271;DHT22;53063;39.614;8.814;2022-09-09T04:44:31;24.30;90.80
66271;DHT22;53063;39.614;8.814;2022-09-09T04:46:58;24.20;90.20
66271;DHT22;53063;39.614;8.814;2022-09-09T04:49:24;24.20;89.70
66271;DHT22;53063;39.614;8.814;2022-09-09T04:51:50;24.20;89.40
66271;DHT22;53063;39.614;8.814;2022-09-09T04:54:17;24.20;88.90
66271;DHT22;53063;39.614;8.814;2022-09-09T04:56:44;24.20;88.50
66271;DHT22;53063;39.614;8.814;2022-09-09T04:59:11;24.10;88.30
66271;DHT22;53063;39.614;8.814;2022-09-09T05:01:43;24.10;88.10
66271;DHT22;53063;39.614;8.814;2022-09-09T05:04:10;24.00;88.00
66271;DHT22;53063;39.614;8.814;2022-09-09T05:06:36;24.10;87.80
66271;DHT22;53063;39.614;8.814;2022-09-09T05:09:03;24.10;87.90
66271;DHT22;53063;39.614;8.814;2022-09-09T05:11:31;24.10;88.10
66271;DHT22;53063;39.614;8.814;2022-09-09T05:14:30;24.10;88.30
66271;DHT22;53063;39.614;8.814;2022-09-09T05:16:56;24.20;88.20
66271;DHT22;53063;39.614;8.814;2022-09-09T05:19:24;24.20;87.90
66271;DHT22;53063;39.614;8.814;2022-09-09T05:21:51;24.10;88.00
66271;DHT22;53063;39.614;8.814;2022-09-09T05:24:22;24.10;88.10
66271;DHT22;53063;39.614;8.814;2022-09-09T05:26:54;24.10;87.90
66271;DHT22;53063;39.614;8.814;2022-09-09T05:29:23;24.20;87.60
66271;DHT22;53063;39.614;8.814;2022-09-09T05:31:49;24.00;87.10
66271;DHT22;53063;39.614;8.814;2022-09-09T05:34:19;24.10;87.30
66271;DHT22;53063;39.614;8.814;2022-09-09T05:36:46;24.20;86.50
66271;DHT22;53063;39.614;8.814;2022-09-09T05:39:14;24.20;86.20
66271;DHT22;53063;39.614;8.814;2022-09-09T05:41:40;24.20;85.80
66271;DHT22;53063;39.614;8.814;2022-09-09T05:44:07;24.30;85.10
66271;DHT22;53063;39.614;8.814;2022-09-09T05:46:37;24.40;84.70
66271;DHT22;53063;39.614;8.814;2022-09-09T05:49:03;24.40;84.70
66271;DHT22;53063;39.614;8.814;2022-09-09T05:51:32;24.30;84.50
66271;DHT22;53063;39.614;8.814;2022-09-09T05:54:03;24.40;84.10
66271;DHT22;53063;39.614;8.814;2022-09-09T05:56:33;24.50;83.90
66271;DHT22;53063;39.614;8.814;2022-09-09T05:59:00;24.50;83.70
66271;DHT22;53063;39.614;8.814;2022-09-09T06:01:34;24.60;83.20
66271;DHT22;53063;39.614;8.814;2022-09-09T06:04:02;24.70;82.40
66271;DHT22;53063;39.614;8.814;2022-09-09T06:06:33;24.80;82.20
66271;DHT22;53063;39.614;8.814;2022-09-09T06:09:06;25.00;81.10
66271;DHT22;53063;39.614;8.814;2022-09-09T06:11:36;25.00;80.40
66271;DHT22;53063;39.614;8.814;2022-09-09T06:14:03;25.00;80.50
66271;DHT22;53063;39.614;8.814;2022-09-09T06:16:31;25.00;80.30
66271;DHT22;53063;39.614;8.814;2022-09-09T06:18:59;25.10;80.00
66271;DHT22;53063;39.614;8.814;2022-09-09T06:21:29;25.20;79.00
66271;DHT22;53063;39.614;8.814;2022-09-09T06:23:57;25.30;78.80
66271;DHT22;53063;39.614;8.814;2022-09-09T06:26:25;25.30;78.70
66271;DHT22;53063;39.614;8.814;2022-09-09T06:28:54;25.40;78.20
66271;DHT22;53063;39.614;8.814;2022-09-09T06:31:22;25.50;77.70
66271;DHT22;53063;39.614;8.814;2022-09-09T06:33:50;25.50;77.30
66271;DHT22;53063;39.614;8.814;2022-09-09T06:36:24;25.50;77.40
66271;DHT22;53063;39.614;8.814;2022-09-09T06:38:51;25.60;77.10
66271;DHT22;53063;39.614;8.814;2022-09-09T06:41:20;25.70;76.60
66271;DHT22;53063;39.614;8.814;2022-09-09T06:43:46;25.70;76.20
66271;DHT22;53063;39.614;8.814;2022-09-09T06:46:13;25.90;75.80
66271;DHT22;53063;39.614;8.814;2022-09-09T06:48:40;25.90;75.00
66271;DHT22;53063;39.614;8.814;2022-09-09T06:51:12;25.90;75.30
66271;DHT22;53063;39.614;8.814;2022-09-09T06:53:42;26.10;74.70
66271;DHT22;53063;39.614;8.814;2022-09-09T06:58:40;26.50;72.50
66271;DHT22;53063;39.614;8.814;2022-09-09T07:01:13;26.50;72.20
66271;DHT22;53063;39.614;8.814;2022-09-09T07:03:42;26.70;71.50
66271;DHT22;53063;39.614;8.814;2022-09-09T07:06:20;26.80;70.40
66271;DHT22;53063;39.614;8.814;2022-09-09T07:08:51;26.90;71.00
66271;DHT22;53063;39.614;8.814;2022-09-09T07:11:19;26.90;71.20
66271;DHT22;53063;39.614;8.814;2022-09-09T07:13:45;27.00;70.50
66271;DHT22;53063;39.614;8.814;2022-09-09T07:16:14;27.10;69.10
66271;DHT22;53063;39.614;8.814;2022-09-09T07:18:40;27.30;66.70
66271;DHT22;53063;39.614;8.814;2022-09-09T07:21:10;27.40;65.40
66271;DHT22;53063;39.614;8.814;2022-09-09T07:23:36;27.30;65.00
66271;DHT22;53063;39.614;8.814;2022-09-09T07:26:06;27.20;65.00
66271;DHT22;53063;39.614;8.814;2022-09-09T07:28:33;27.50;64.00
66271;DHT22;53063;39.614;8.814;2022-09-09T07:31:01;27.70;64.50
66271;DHT22;53063;39.614;8.814;2022-09-09T07:33:33;27.60;63.60
66271;DHT22;53063;39.614;8.814;2022-09-09T07:36:23;27.70;63.10
66271;DHT22;53063;39.614;8.814;2022-09-09T07:38:52;27.60;63.60
66271;DHT22;53063;39.614;8.814;2022-09-09T07:41:22;27.90;64.30
66271;DHT22;53063;39.614;8.814;2022-09-09T07:43:51;28.10;63.10
66271;DHT22;53063;39.614;8.814;2022-09-09T07:46:22;28.10;62.40
66271;DHT22;53063;39.614;8.814;2022-09-09T07:48:52;27.90;62.90
66271;DHT22;53063;39.614;8.814;2022-09-09T07:51:35;27.80;63.40
66271;DHT22;53063;39.614;8.814;2022-09-09T07:54:07;28.30;61.50
66271;DHT22;53063;39.614;8.814;2022-09-09T07:56:37;28.20;61.00
66271;DHT22;53063;39.614;8.814;2022-09-09T07:59:04;28.40;61.80
66271;DHT22;53063;39.614;8.814;2022-09-09T08:01:41;28.80;61.20
66271;DHT22;53063;39.614;8.814;2022-09-09T08:04:11;28.70;60.30
66271;DHT22;53063;39.614;8.814;2022-09-09T08:06:49;28.40;60.00
66271;DHT22;53063;39.614;8.814;2022-09-09T08:09:17;28.50;60.20
66271;DHT22;53063;39.614;8.814;2022-09-09T08:11:46;28.70;59.50
66271;DHT22;53063;39.614;8.814;2022-09-09T08:14:13;29.00;59.10
66271;DHT22;53063;39.614;8.814;2022-09-09T08:16:45;29.10;58.10
66271;DHT22;53063;39.614;8.814;2022-09-09T08:19:14;29.10;58.40
66271;DHT22;53063;39.614;8.814;2022-09-09T08:21:41;29.30;56.40
66271;DHT22;53063;39.614;8.814;2022-09-09T08:24:10;29.40;56.00
66271;DHT22;53063;39.614;8.814;2022-09-09T08:26:39;29.50;56.40
66271;DHT22;53063;39.614;8.814;2022-09-09T08:29:07;29.60;57.20
66271;DHT22;53063;39.614;8.814;2022-09-09T08:31:42;30.00;54.50
66271;DHT22;53063;39.614;8.814;2022-09-09T08:34:08;30.40;53.20
66271;DHT22;53063;39.614;8.814;2022-09-09T08:36:42;30.40;52.30
66271;DHT22;53063;39.614;8.814;2022-09-09T08:39:10;30.70;52.70
66271;DHT22;53063;39.614;8.814;2022-09-09T08:52:23;31.20;50.60
66271;DHT22;53063;39.614;8.814;2022-09-09T08:54:51;31.00;52.10
66271;DHT22;53063;39.614;8.814;2022-09-09T08:57:28;31.70;48.70
66271;DHT22;53063;39.614;8.814;2022-09-09T08:59:55;31.80;48.50
66271;DHT22;53063;39.614;8.814;2022-09-09T09:03:00;32.00;48.40
66271;DHT22;53063;39.614;8.814;2022-09-09T09:06:05;32.20;49.30
66271;DHT22;53063;39.614;8.814;2022-09-09T09:11:38;31.80;50.80
66271;DHT22;53063;39.614;8.814;2022-09-09T09:19:30;33.20;46.50
66271;DHT22;53063;39.614;8.814;2022-09-09T09:22:26;32.60;47.30
66271;DHT22;53063;39.614;8.814;2022-09-09T09:27:52;32.50;46.10
66271;DHT22;53063;39.614;8.814;2022-09-09T09:30:25;33.10;45.00
66271;DHT22;53063;39.614;8.814;2022-09-09T09:36:06;33.80;42.50
66271;DHT22;53063;39.614;8.814;2022-09-09T09:38:36;33.80;42.90
66271;DHT22;53063;39.614;8.814;2022-09-09T09:41:03;33.90;40.50
66271;DHT22;53063;39.614;8.814;2022-09-09T09:43:35;33.70;40.10
66271;DHT22;53063;39.614;8.814;2022-09-09T09:46:20;33.90;38.10
66271;DHT22;53063;39.614;8.814;2022-09-09T09:49:00;34.20;38.70
66271;DHT22;53063;39.614;8.814;2022-09-09T09:51:29;34.40;35.90
66271;DHT22;53063;39.614;8.814;2022-09-09T09:54:22;34.40;37.40
66271;DHT22;53063;39.614;8.814;2022-09-09T09:56:52;34.50;36.60
66271;DHT22;53063;39.614;8.814;2022-09-09T09:59:33;34.70;36.10
66271;DHT22;53063;39.614;8.814;2022-09-09T10:02:48;34.60;35.60
66271;DHT22;53063;39.614;8.814;2022-09-09T10:05:23;34.20;35.30
66271;DHT22;53063;39.614;8.814;2022-09-09T10:08:13;34.20;36.50
66271;DHT22;53063;39.614;8.814;2022-09-09T10:19:34;34.90;34.90
66271;DHT22;53063;39.614;8.814;2022-09-09T10:36:22;35.60;33.00
66271;DHT22;53063;39.614;8.814;2022-09-09T10:39:05;35.70;32.20
66271;DHT22;53063;39.614;8.814;2022-09-09T10:42:05;35.60;31.90
66271;DHT22;53063;39.614;8.814;2022-09-09T10:55:42;35.80;32.00
66271;DHT22;53063;39.614;8.814;2022-09-09T10:58:22;36.10;31.10
66271;DHT22;53063;39.614;8.814;2022-09-09T11:00:56;36.30;31.40
66271;DHT22;53063;39.614;8.814;2022-09-09T11:03:26;36.30;31.70
66271;DHT22;53063;39.614;8.814;2022-09-09T11:06:09;36.50;31.80
66271;DHT22;53063;39.614;8.814;2022-09-09T11:08:38;36.40;31.00
66271;DHT22;53063;39.614;8.814;2022-09-09T11:19:41;36.20;30.80
66271;DHT22;53063;39.614;8.814;2022-09-09T11:22:39;36.80;30.00
66271;DHT22;53063;39.614;8.814;2022-09-09T11:30:55;36.70;30.70
66271;DHT22;53063;39.614;8.814;2022-09-09T11:38:53;36.80;31.20
66271;DHT22;53063;39.614;8.814;2022-09-09T11:41:23;37.00;29.40
66271;DHT22;53063;39.614;8.814;2022-09-09T11:43:52;37.00;29.30
66271;DHT22;53063;39.614;8.814;2022-09-09T11:46:39;37.10;29.10
66271;DHT22;53063;39.614;8.814;2022-09-09T11:51:51;37.30;28.80
66271;DHT22;53063;39.614;8.814;2022-09-09T11:54:33;36.90;29.00
66271;DHT22;53063;39.614;8.814;2022-09-09T11:57:41;36.60;27.60
66271;DHT22;53063;39.614;8.814;2022-09-09T12:00:49;36.70;28.00
66271;DHT22;53063;39.614;8.814;2022-09-09T12:03:34;37.40;27.70
66271;DHT22;53063;39.614;8.814;2022-09-09T12:06:32;37.40;28.00
66271;DHT22;53063;39.614;8.814;2022-09-09T12:09:29;37.30;28.10
66271;DHT22;53063;39.614;8.814;2022-09-09T12:17:23;37.50;26.10
66271;DHT22;53063;39.614;8.814;2022-09-09T12:22:44;37.80;25.80
66271;DHT22;53063;39.614;8.814;2022-09-09T12:25:33;37.70;26.90
66271;DHT22;53063;39.614;8.814;2022-09-09T12:36:40;37.20;28.90
66271;DHT22;53063;39.614;8.814;2022-09-09T12:39:42;36.90;28.50
66271;DHT22;53063;39.614;8.814;2022-09-09T12:42:19;36.30;30.30
66271;DHT22;53063;39.614;8.814;2022-09-09T12:45:22;36.60;29.90
66271;DHT22;53063;39.614;8.814;2022-09-09T12:48:02;36.70;28.80
66271;DHT22;53063;39.614;8.814;2022-09-09T12:50:33;36.70;29.10
66271;DHT22;53063;39.614;8.814;2022-09-09T12:53:16;36.40;29.00
66271;DHT22;53063;39.614;8.814;2022-09-09T12:56:03;36.50;29.80
66271;DHT22;53063;39.614;8.814;2022-09-09T12:58:31;36.60;30.30
66271;DHT22;53063;39.614;8.814;2022-09-09T13:01:01;36.40;30.20
66271;DHT22;53063;39.614;8.814;2022-09-09T13:03:32;35.60;30.20
66271;DHT22;53063;39.614;8.814;2022-09-09T13:06:10;35.60;32.60
66271;DHT22;53063;39.614;8.814;2022-09-09T13:08:37;35.80;32.10
66271;DHT22;53063;39.614;8.814;2022-09-09T13:11:08;35.90;31.60
66271;DHT22;53063;39.614;8.814;2022-09-09T13:13:38;36.10;31.00
66271;DHT22;53063;39.614;8.814;2022-09-09T13:16:18;36.40;30.00
66271;DHT22;53063;39.614;8.814;2022-09-09T13:18:45;36.20;29.70
66271;DHT22;53063;39.614;8.814;2022-09-09T13:21:12;35.80;30.70
66271;DHT22;53063;39.614;8.814;2022-09-09T13:23:38;36.00;29.70
66271;DHT22;53063;39.614;8.814;2022-09-09T13:26:27;35.80;30.40
66271;DHT22;53063;39.614;8.814;2022-09-09T13:28:53;35.70;31.30
66271;DHT22;53063;39.614;8.814;2022-09-09T13:31:29;35.40;31.40
66271;DHT22;53063;39.614;8.814;2022-09-09T13:33:55;35.40;31.00
66271;DHT22;53063;39.614;8.814;2022-09-09T13:36:32;35.50;31.10
66271;DHT22;53063;39.614;8.814;2022-09-09T13:38:59;35.50;30.30
66271;DHT22;53063;39.614;8.814;2022-09-09T13:41:31;35.60;31.50
66271;DHT22;53063;39.614;8.814;2022-09-09T13:43:58;35.40;31.50
66271;DHT22;53063;39.614;8.814;2022-09-09T13:46:38;35.30;31.40
66271;DHT22;53063;39.614;8.814;2022-09-09T13:51:42;35.00;32.30
66271;DHT22;53063;39.614;8.814;2022-09-09T13:54:10;35.10;31.30
66271;DHT22;53063;39.614;8.814;2022-09-09T13:56:38;34.90;30.70
66271;DHT22;53063;39.614;8.814;2022-09-09T13:59:06;34.70;32.20
66271;DHT22;53063;39.614;8.814;2022-09-09T14:01:35;34.70;32.20
66271;DHT22;53063;39.614;8.814;2022-09-09T14:04:01;34.70;31.60
66271;DHT22;53063;39.614;8.814;2022-09-09T14:06:27;34.70;32.10
66271;DHT22;53063;39.614;8.814;2022-09-09T14:08:54;34.50;32.30
66271;DHT22;53063;39.614;8.814;2022-09-09T14:11:21;34.50;32.10
66271;DHT22;53063;39.614;8.814;2022-09-09T14:13:50;34.70;31.40
66271;DHT22;53063;39.614;8.814;2022-09-09T14:16:17;34.50;30.50
66271;DHT22;53063;39.614;8.814;2022-09-09T14:18:46;34.40;31.30
66271;DHT22;53063;39.614;8.814;2022-09-09T14:21:12;34.40;31.10
66271;DHT22;53063;39.614;8.814;2022-09-09T14:23:39;34.50;31.70
66271;DHT22;53063;39.614;8.814;2022-09-09T14:26:06;34.30;31.90
66271;DHT22;53063;39.614;8.814;2022-09-09T14:28:33;33.90;30.70
66271;DHT22;53063;39.614;8.814;2022-09-09T14:31:00;33.90;32.20
66271;DHT22;53063;39.614;8.814;2022-09-09T14:33:27;34.10;31.80
66271;DHT22;53063;39.614;8.814;2022-09-09T14:35:58;34.00;31.10
66271;DHT22;53063;39.614;8.814;2022-09-09T14:38:28;33.90;30.50
66271;DHT22;53063;39.614;8.814;2022-09-09T14:40:54;34.00;30.70
66271;DHT22;53063;39.614;8.814;2022-09-09T14:43:21;33.80;31.30
66271;DHT22;53063;39.614;8.814;2022-09-09T14:45:47;33.80;31.50
66271;DHT22;53063;39.614;8.814;2022-09-09T14:48:14;33.80;30.90
66271;DHT22;53063;39.614;8.814;2022-09-09T14:50:41;33.80;31.00
66271;DHT22;53063;39.614;8.814;2022-09-09T14:53:07;33.60;30.60
66271;DHT22;53063;39.614;8.814;2022-09-09T14:55:34;33.60;30.40
66271;DHT22;53063;39.614;8.814;2022-09-09T14:58:00;33.40;31.90
66271;DHT22;53063;39.614;8.814;2022-09-09T15:00:26;33.20;31.60
66271;DHT22;53063;39.614;8.814;2022-09-09T15:02:56;33.10;31.80
66271;DHT22;53063;39.614;8.814;2022-09-09T15:05:22;33.10;31.20
66271;DHT22;53063;39.614;8.814;2022-09-09T15:07:50;33.10;32.50
66271;DHT22;53063;39.614;8.814;2022-09-09T15:10:16;33.10;32.60
66271;DHT22;53063;39.614;8.814;2022-09-09T15:12:43;32.90;33.20
66271;DHT22;53063;39.614;8.814;2022-09-09T15:15:10;32.90;32.80
66271;DHT22;53063;39.614;8.814;2022-09-09T15:17:36;32.70;32.70
66271;DHT22;53063;39.614;8.814;2022-09-09T15:20:03;32.70;32.40
66271;DHT22;53063;39.614;8.814;2022-09-09T15:22:31;32.60;33.20
66271;DHT22;53063;39.614;8.814;2022-09-09T15:24:57;32.50;33.30
66271;DHT22;53063;39.614;8.814;2022-09-09T15:27:23;32.40;33.60
66271;DHT22;53063;39.614;8.814;2022-09-09T15:29:49;32.10;34.00
66271;DHT22;53063;39.614;8.814;2022-09-09T15:32:17;32.10;34.30
66271;DHT22;53063;39.614;8.814;2022-09-09T15:34:43;32.00;34.20
66271;DHT22;53063;39.614;8.814;2022-09-09T15:37:10;32.00;34.80
66271;DHT22;53063;39.614;8.814;2022-09-09T15:39:39;32.10;33.90
66271;DHT22;53063;39.614;8.814;2022-09-09T15:42:06;32.10;33.90
66271;DHT22;53063;39.614;8.814;2022-09-09T15:44:42;31.90;33.60
66271;DHT22;53063;39.614;8.814;2022-09-09T15:47:10;31.90;35.10
66271;DHT22;53063;39.614;8.814;2022-09-09T15:49:38;31.70;35.10
66271;DHT22;53063;39.614;8.814;2022-09-09T15:52:04;31.60;35.40
66271;DHT22;53063;39.614;8.814;2022-09-09T15:54:33;31.50;34.90
66271;DHT22;53063;39.614;8.814;2022-09-09T15:57:01;31.40;36.20
66271;DHT22;53063;39.614;8.814;2022-09-09T15:59:30;31.30;36.50
66271;DHT22;53063;39.614;8.814;2022-09-09T16:01:57;31.30;36.90
66271;DHT22;53063;39.614;8.814;2022-09-09T16:04:25;31.20;38.10
66271;DHT22;53063;39.614;8.814;2022-09-09T16:07:01;31.20;38.00
66271;DHT22;53063;39.614;8.814;2022-09-09T16:09:27;31.10;38.00
66271;DHT22;53063;39.614;8.814;2022-09-09T16:11:57;31.00;38.90
66271;DHT22;53063;39.614;8.814;2022-09-09T16:14:24;30.90;39.30
66271;DHT22;53063;39.614;8.814;2022-09-09T16:16:51;30.80;40.00
66271;DHT22;53063;39.614;8.814;2022-09-09T16:19:17;30.60;40.50
66271;DHT22;53063;39.614;8.814;2022-09-09T16:21:47;30.60;40.60
66271;DHT22;53063;39.614;8.814;2022-09-09T16:24:15;30.50;40.70
66271;DHT22;53063;39.614;8.814;2022-09-09T16:26:44;30.50;40.90
66271;DHT22;53063;39.614;8.814;2022-09-09T16:29:13;30.40;41.00
66271;DHT22;53063;39.614;8.814;2022-09-09T16:31:40;30.40;41.40
66271;DHT22;53063;39.614;8.814;2022-09-09T16:34:07;30.30;41.60
66271;DHT22;53063;39.614;8.814;2022-09-09T16:36:35;30.30;41.90
66271;DHT22;53063;39.614;8.814;2022-09-09T16:39:07;30.30;41.80
66271;DHT22;53063;39.614;8.814;2022-09-09T16:41:35;30.20;41.60
66271;DHT22;53063;39.614;8.814;2022-09-09T16:44:04;30.10;41.80
66271;DHT22;53063;39.614;8.814;2022-09-09T16:46:32;30.00;42.20
66271;DHT22;53063;39.614;8.814;2022-09-09T16:49:00;29.90;42.30
66271;DHT22;53063;39.614;8.814;2022-09-09T16:51:32;29.80;42.70
66271;DHT22;53063;39.614;8.814;2022-09-09T16:54:00;29.80;42.60
66271;DHT22;53063;39.614;8.814;2022-09-09T16:56:28;29.80;42.90
66271;DHT22;53063;39.614;8.814;2022-09-09T16:58:57;29.70;43.00
66271;DHT22;53063;39.614;8.814;2022-09-09T17:01:25;29.60;43.10
66271;DHT22;53063;39.614;8.814;2022-09-09T17:03:59;29.50;43.30
66271;DHT22;53063;39.614;8.814;2022-09-09T17:06:27;29.50;43.40
66271;DHT22;53063;39.614;8.814;2022-09-09T17:08:59;29.50;43.60
66271;DHT22;53063;39.614;8.814;2022-09-09T17:11:27;29.40;43.80
66271;DHT22;53063;39.614;8.814;2022-09-09T17:13:55;29.20;44.00
66271;DHT22;53063;39.614;8.814;2022-09-09T17:16:23;29.00;44.40
66271;DHT22;53063;39.614;8.814;2022-09-09T17:18:51;28.80;45.00
66271;DHT22;53063;39.614;8.814;2022-09-09T17:21:20;28.80;45.20
66271;DHT22;53063;39.614;8.814;2022-09-09T17:23:46;28.70;45.40
66271;DHT22;53063;39.614;8.814;2022-09-09T17:26:15;28.70;45.60
66271;DHT22;53063;39.614;8.814;2022-09-09T17:28:42;28.50;46.40
66271;DHT22;53063;39.614;8.814;2022-09-09T17:31:10;28.50;46.80
66271;DHT22;53063;39.614;8.814;2022-09-09T17:33:38;28.50;47.00
66271;DHT22;53063;39.614;8.814;2022-09-09T17:36:16;28.40;47.80
66271;DHT22;53063;39.614;8.814;2022-09-09T17:38:43;28.20;48.50
66271;DHT22;53063;39.614;8.814;2022-09-09T17:41:18;28.20;48.80
66271;DHT22;53063;39.614;8.814;2022-09-09T17:43:45;28.10;49.40
66271;DHT22;53063;39.614;8.814;2022-09-09T17:46:24;28.00;50.00
66271;DHT22;53063;39.614;8.814;2022-09-09T17:48:52;28.00;50.80
66271;DHT22;53063;39.614;8.814;2022-09-09T17:51:23;28.00;51.30
66271;DHT22;53063;39.614;8.814;2022-09-09T17:53:51;28.00;51.80
66271;DHT22;53063;39.614;8.814;2022-09-09T17:56:19;27.80;52.60
66271;DHT22;53063;39.614;8.814;2022-09-09T17:58:52;27.80;53.30
66271;DHT22;53063;39.614;8.814;2022-09-09T18:01:24;27.70;54.30
66271;DHT22;53063;39.614;8.814;2022-09-09T18:03:53;27.60;54.50
66271;DHT22;53063;39.614;8.814;2022-09-09T18:06:32;27.60;55.00
66271;DHT22;53063;39.614;8.814;2022-09-09T18:09:03;27.50;55.90
66271;DHT22;53063;39.614;8.814;2022-09-09T18:11:32;27.40;56.50
66271;DHT22;53063;39.614;8.814;2022-09-09T18:14:00;27.40;56.70
66271;DHT22;53063;39.614;8.814;2022-09-09T18:16:28;27.40;57.20
66271;DHT22;53063;39.614;8.814;2022-09-09T18:18:56;27.30;57.60
66271;DHT22;53063;39.614;8.814;2022-09-09T18:21:24;27.30;57.90
66271;DHT22;53063;39.614;8.814;2022-09-09T18:23:52;27.20;58.10
66271;DHT22;53063;39.614;8.814;2022-09-09T18:26:24;27.10;58.40
66271;DHT22;53063;39.614;8.814;2022-09-09T18:28:53;27.10;58.60